createdAt,value
2023-06-19T00:01:33.191Z,24.90
2023-06-19T00:04:21.737Z,24.80
2023-06-19T00:07:11.645Z,24.80
2023-06-19T00:10:00.251Z,24.80
2023-06-19T00:12:49.006Z,24.70
2023-06-19T00:15:37.497Z,24.70
2023-06-19T00:18:25.931Z,24.60
2023-06-19T00:21:14.538Z,24.60
2023-06-19T00:24:04.441Z,24.60
2023-06-19T00:26:52.924Z,24.60
2023-06-19T00:29:41.465Z,24.60
2023-06-19T00:32:30.281Z,24.60
2023-06-19T00:35:20.205Z,24.50
2023-06-19T00:38:10.187Z,24.50
2023-06-19T00:41:00.151Z,24.50
2023-06-19T00:43:48.654Z,24.40
2023-06-19T00:46:39.986Z,24.50
2023-06-19T00:49:29.294Z,24.60
2023-06-19T00:52:18.711Z,24.60
2023-06-19T00:55:10.280Z,24.60
2023-06-19T00:58:01.516Z,24.70
2023-06-19T01:01:03.834Z,24.70
2023-06-19T01:03:56.781Z,24.80
2023-06-19T01:06:59.090Z,24.80
2023-06-19T01:09:55.617Z,24.80
2023-06-19T01:12:52.010Z,24.80
2023-06-19T01:15:43.656Z,24.80
2023-06-19T01:18:32.909Z,24.90
2023-06-19T01:21:21.840Z,24.80
2023-06-19T01:24:11.841Z,24.80
2023-06-19T01:27:00.481Z,24.90
2023-06-19T01:29:49.196Z,24.90
2023-06-19T01:32:45.990Z,24.90
2023-06-19T01:35:37.162Z,24.90
2023-06-19T01:38:27.525Z,24.90
2023-06-19T01:41:19.247Z,24.90
2023-06-19T01:44:08.083Z,24.90
2023-06-19T01:46:56.564Z,24.90
2023-06-19T01:49:45.249Z,24.90
2023-06-19T01:52:33.939Z,24.90
2023-06-19T01:55:22.817Z,24.80
2023-06-19T01:58:12.970Z,24.80
2023-06-19T02:01:01.441Z,24.80
2023-06-19T02:03:50.068Z,24.90
2023-06-19T02:06:38.631Z,24.80
2023-06-19T02:09:27.329Z,24.90
2023-06-19T02:12:15.792Z,24.90
2023-06-19T02:15:06.421Z,24.80
2023-06-19T02:17:57.533Z,24.80
2023-06-19T02:20:46.045Z,24.90
2023-06-19T02:23:34.594Z,24.80
2023-06-19T02:26:23.408Z,24.80
2023-06-19T02:29:11.929Z,24.80
2023-06-19T02:32:01.784Z,24.80
2023-06-19T02:34:50.238Z,24.80
2023-06-19T02:37:38.740Z,24.90
2023-06-19T02:40:27.523Z,24.90
2023-06-19T02:43:16.790Z,24.80
2023-06-19T02:46:05.293Z,24.80
2023-06-19T02:48:55.223Z,24.90
2023-06-19T02:51:43.708Z,24.80
2023-06-19T02:54:32.216Z,24.80
2023-06-19T02:57:20.649Z,24.80
2023-06-19T03:00:11.400Z,24.90
2023-06-19T03:03:00.536Z,24.80
2023-06-19T03:05:50.468Z,24.90
2023-06-19T03:08:39.786Z,24.90
2023-06-19T03:11:28.232Z,24.80
2023-06-19T03:14:16.928Z,24.90
2023-06-19T03:17:05.972Z,24.80
2023-06-19T03:19:54.557Z,24.80
2023-06-19T03:22:44.757Z,24.90
2023-06-19T03:25:36.290Z,24.90
2023-06-19T03:28:24.942Z,24.90
2023-06-19T03:31:13.337Z,24.90
2023-06-19T03:34:01.843Z,24.90
2023-06-19T03:36:50.365Z,24.90
2023-06-19T03:39:40.266Z,24.90
2023-06-19T03:42:28.639Z,24.90
2023-06-19T03:45:17.382Z,24.90
2023-06-19T03:48:07.174Z,24.90
2023-06-19T03:50:56.525Z,24.90
2023-06-19T03:53:45.046Z,24.90
2023-06-19T03:56:35.007Z,25.00
2023-06-19T03:59:23.549Z,25.00
2023-06-19T04:02:12.280Z,25.00
2023-06-19T04:05:00.861Z,25.00
2023-06-19T04:07:49.568Z,25.00
2023-06-19T04:10:38.053Z,25.00
2023-06-19T04:13:28.237Z,25.00
2023-06-19T04:16:17.204Z,25.10
2023-06-19T04:19:05.741Z,25.10
2023-06-19T04:21:55.813Z,25.10
2023-06-19T04:24:44.420Z,25.10
2023-06-19T04:27:32.986Z,25.10
2023-06-19T04:30:23.235Z,25.10
2023-06-19T04:33:12.142Z,25.00
2023-06-19T04:36:01.669Z,24.90
2023-06-19T04:38:53.478Z,24.90
2023-06-19T04:41:42.297Z,24.80
2023-06-19T04:44:31.270Z,24.60
2023-06-19T04:47:26.768Z,24.60
2023-06-19T04:50:19.859Z,24.40
2023-06-19T04:53:08.298Z,24.40
2023-06-19T04:55:57.143Z,24.40
2023-06-19T04:58:48.592Z,24.30
2023-06-19T05:01:37.506Z,24.20
2023-06-19T05:04:27.851Z,24.00
2023-06-19T05:07:19.168Z,23.80
2023-06-19T05:10:08.506Z,23.70
2023-06-19T05:12:56.976Z,23.50
2023-06-19T05:15:45.560Z,23.40
2023-06-19T05:18:34.084Z,23.40
2023-06-19T05:21:24.087Z,23.30
2023-06-19T05:24:12.606Z,23.30
2023-06-19T05:27:01.190Z,23.20
2023-06-19T05:29:49.705Z,23.20
2023-06-19T05:32:38.202Z,23.20
2023-06-19T05:35:27.563Z,23.30
2023-06-19T05:38:17.394Z,23.30
2023-06-19T05:41:05.952Z,23.30
2023-06-19T05:43:54.409Z,23.20
2023-06-19T05:46:42.859Z,23.20
2023-06-19T05:49:31.746Z,23.20
2023-06-19T05:52:20.310Z,23.20
2023-06-19T05:55:11.039Z,23.30
2023-06-19T05:57:59.638Z,23.30
2023-06-19T06:00:48.517Z,23.40
2023-06-19T06:03:37.297Z,23.50
2023-06-19T06:06:27.023Z,23.50
2023-06-19T06:09:17.325Z,23.60
2023-06-19T06:12:09.092Z,23.60
2023-06-19T06:14:57.512Z,23.70
2023-06-19T06:17:46.119Z,23.80
2023-06-19T06:20:34.729Z,23.80
2023-06-19T06:23:23.371Z,23.90
2023-06-19T06:26:11.900Z,24.00
2023-06-19T06:29:01.760Z,24.00
2023-06-19T06:31:53.668Z,24.10
2023-06-19T06:34:42.200Z,24.10
2023-06-19T06:37:30.667Z,24.10
2023-06-19T06:40:19.278Z,24.10
2023-06-19T06:43:07.715Z,24.20
2023-06-19T06:45:57.639Z,24.20
2023-06-19T06:48:46.058Z,24.30
2023-06-19T06:51:34.570Z,24.30
2023-06-19T06:54:23.218Z,24.40
2023-06-19T06:57:11.701Z,24.50
2023-06-19T07:00:00.177Z,24.70
2023-06-19T07:02:51.791Z,24.70
2023-06-19T07:05:40.399Z,24.80
2023-06-19T07:08:28.927Z,24.90
2023-06-19T07:11:17.379Z,25.00
2023-06-19T07:14:05.821Z,25.00
2023-06-19T07:16:54.278Z,25.00
2023-06-19T07:19:44.222Z,24.80
2023-06-19T07:22:32.904Z,24.80
2023-06-19T07:25:21.443Z,24.60
2023-06-19T07:28:09.992Z,24.70
2023-06-19T07:30:58.439Z,24.70
2023-06-19T07:33:46.852Z,24.80
2023-06-19T07:36:36.780Z,24.90
2023-06-19T07:39:25.336Z,24.90
2023-06-19T07:42:15.174Z,25.00
2023-06-19T07:45:03.687Z,25.10
2023-06-19T07:47:57.227Z,25.20
2023-06-19T07:50:45.778Z,25.30
2023-06-19T07:53:35.614Z,25.30
2023-06-19T07:56:24.155Z,25.40
2023-06-19T07:59:12.679Z,25.50
2023-06-19T08:02:01.294Z,25.60
2023-06-19T08:04:50.159Z,25.70
2023-06-19T08:07:39.501Z,25.80
2023-06-19T08:10:29.798Z,25.90
2023-06-19T08:13:18.546Z,26.10
2023-06-19T08:16:07.494Z,26.10
2023-06-19T08:18:55.985Z,26.20
2023-06-19T08:21:44.417Z,26.30
2023-06-19T08:24:33.053Z,26.40
2023-06-19T08:27:22.963Z,26.50
2023-06-19T08:30:12.061Z,26.60
2023-06-19T08:33:00.639Z,26.70
2023-06-19T08:35:49.514Z,26.90
2023-06-19T08:38:38.029Z,26.90
2023-06-19T08:41:26.614Z,26.90
2023-06-19T08:44:16.805Z,27.00
2023-06-19T08:47:06.024Z,27.00
2023-06-19T08:49:54.488Z,27.10
2023-06-19T08:52:43.003Z,27.20
2023-06-19T08:55:31.597Z,27.30
2023-06-19T08:58:24.609Z,27.30
2023-06-19T09:01:19.302Z,27.40
2023-06-19T09:04:12.453Z,27.50
2023-06-19T09:07:04.001Z,27.60
2023-06-19T09:09:53.021Z,27.60
2023-06-19T09:12:41.492Z,27.70
2023-06-19T09:15:31.878Z,27.80
2023-06-19T09:18:21.811Z,27.80
2023-06-19T09:21:17.536Z,27.90
2023-06-19T09:24:07.509Z,27.90
2023-06-19T09:27:07.274Z,28.00
2023-06-19T09:29:55.791Z,28.10
2023-06-19T09:32:44.363Z,28.10
2023-06-19T09:35:34.268Z,28.10
2023-06-19T09:38:27.126Z,28.20
2023-06-19T09:41:17.212Z,28.10
2023-06-19T09:44:13.603Z,28.20
2023-06-19T09:47:06.189Z,28.20
2023-06-19T09:49:57.766Z,28.20
2023-06-19T09:52:47.593Z,28.30
2023-06-19T09:55:38.629Z,28.30
2023-06-19T09:58:27.970Z,28.30
2023-06-19T10:01:19.626Z,28.40
2023-06-19T10:04:09.749Z,28.40
2023-06-19T10:06:58.707Z,28.50
2023-06-19T10:10:03.297Z,28.50
2023-06-19T10:12:52.216Z,28.50
2023-06-19T10:15:43.959Z,28.50
2023-06-19T10:18:34.581Z,28.50
2023-06-19T10:21:24.052Z,28.50
2023-06-19T10:24:16.914Z,28.60
2023-06-19T10:27:07.425Z,28.70
2023-06-19T10:30:12.805Z,28.80
2023-06-19T10:33:05.459Z,28.80
2023-06-19T10:35:54.898Z,28.80
2023-06-19T10:38:48.236Z,28.80
2023-06-19T10:41:37.064Z,28.90
2023-06-19T10:44:27.836Z,28.90
2023-06-19T10:47:17.519Z,29.00
2023-06-19T10:50:06.762Z,28.90
2023-06-19T10:52:57.030Z,29.10
2023-06-19T10:55:45.511Z,29.30
2023-06-19T10:58:33.912Z,29.60
2023-06-19T11:01:24.635Z,29.70
2023-06-19T11:04:14.597Z,29.80
2023-06-19T11:07:07.648Z,29.90
2023-06-19T11:09:56.045Z,30.00
2023-06-19T11:12:45.982Z,30.00
2023-06-19T11:15:35.867Z,29.90
2023-06-19T11:18:25.887Z,29.80
2023-06-19T11:21:14.390Z,29.70
2023-06-19T11:24:02.968Z,29.70
2023-06-19T11:26:53.293Z,29.70
2023-06-19T11:29:43.391Z,29.70
2023-06-19T11:32:37.138Z,29.60
2023-06-19T11:35:33.118Z,29.60
2023-06-19T11:38:22.723Z,29.60
2023-06-19T11:41:11.468Z,29.70
2023-06-19T11:44:03.240Z,29.80
2023-06-19T11:46:51.636Z,30.00
2023-06-19T11:49:40.252Z,30.10
2023-06-19T11:52:30.271Z,30.40
2023-06-19T11:55:18.860Z,30.70
2023-06-19T11:58:08.836Z,30.90
2023-06-19T12:00:57.633Z,31.40
2023-06-19T12:03:46.341Z,31.80
2023-06-19T12:06:36.639Z,31.90
2023-06-19T12:09:26.545Z,32.10
2023-06-19T12:12:14.975Z,32.20
2023-06-19T12:15:03.557Z,32.20
2023-06-19T12:17:53.336Z,32.30
2023-06-19T12:20:41.879Z,32.30
2023-06-19T12:23:30.369Z,32.40
2023-06-19T12:26:20.212Z,32.50
2023-06-19T12:29:09.505Z,32.80
2023-06-19T12:32:02.857Z,32.90
2023-06-19T12:34:55.329Z,33.20
2023-06-19T12:37:43.935Z,33.60
2023-06-19T12:40:32.375Z,33.80
2023-06-19T12:43:22.298Z,33.90
2023-06-19T12:46:10.833Z,34.00
2023-06-19T12:48:59.312Z,34.10
2023-06-19T12:51:50.264Z,34.10
2023-06-19T12:54:38.709Z,34.30
2023-06-19T12:57:27.145Z,34.40
2023-06-19T13:00:17.637Z,34.50
2023-06-19T13:03:06.223Z,34.40
2023-06-19T13:05:54.913Z,34.50
2023-06-19T13:08:44.001Z,34.70
2023-06-19T13:11:32.484Z,34.70
2023-06-19T13:14:21.027Z,34.40
2023-06-19T13:17:11.292Z,34.40
2023-06-19T13:20:00.407Z,34.50
2023-06-19T13:22:48.807Z,34.50
2023-06-19T13:25:37.344Z,34.60
2023-06-19T13:28:25.829Z,34.70
2023-06-19T13:31:14.324Z,34.70
2023-06-19T13:34:04.107Z,34.60
2023-06-19T13:36:52.630Z,34.50
2023-06-19T13:39:41.840Z,34.70
2023-06-19T13:42:31.582Z,34.60
2023-06-19T13:45:20.275Z,34.70
2023-06-19T13:48:09.203Z,34.70
2023-06-19T13:51:00.676Z,34.70
2023-06-19T13:53:49.242Z,34.80
2023-06-19T13:56:38.389Z,34.60
2023-06-19T13:59:26.879Z,34.60
2023-06-19T14:02:15.670Z,34.70
2023-06-19T14:05:04.177Z,34.60
2023-06-19T14:07:54.026Z,34.50
2023-06-19T14:10:42.515Z,34.50
2023-06-19T14:13:30.973Z,34.40
2023-06-19T14:16:19.478Z,34.30
2023-06-19T14:19:07.910Z,34.30
2023-06-19T14:21:56.422Z,34.10
2023-06-19T14:24:46.545Z,33.90
2023-06-19T14:27:35.106Z,33.90
2023-06-19T14:30:23.803Z,33.90
2023-06-19T14:33:16.453Z,33.80
2023-06-19T14:36:08.448Z,33.80
2023-06-19T14:38:56.882Z,33.70
2023-06-19T14:41:46.832Z,33.50
2023-06-19T14:44:35.217Z,33.60
2023-06-19T14:47:26.428Z,33.60
2023-06-19T14:50:15.054Z,33.50
2023-06-19T14:53:03.638Z,33.50
2023-06-19T14:55:52.318Z,33.40
2023-06-19T14:58:42.232Z,33.40
2023-06-19T15:01:30.701Z,33.40
2023-06-19T15:04:19.739Z,33.30
2023-06-19T15:07:08.930Z,33.30
2023-06-19T15:09:57.383Z,33.20
2023-06-19T15:12:45.828Z,33.10
2023-06-19T15:15:35.848Z,33.10
2023-06-19T15:18:24.359Z,32.90
2023-06-19T15:21:12.902Z,32.90
2023-06-19T15:24:01.444Z,32.90
2023-06-19T15:26:50.073Z,32.90
2023-06-19T15:29:39.908Z,32.80
2023-06-19T15:32:29.857Z,32.80
2023-06-19T15:35:18.360Z,32.80
2023-06-19T15:38:06.817Z,32.80
2023-06-19T15:40:55.484Z,32.80
2023-06-19T15:43:44.302Z,32.60
2023-06-19T15:46:32.915Z,32.60
2023-06-19T15:49:22.781Z,32.60
2023-06-19T15:52:11.466Z,32.60
2023-06-19T15:54:59.965Z,32.50
2023-06-19T15:57:48.560Z,32.60
2023-06-19T16:00:37.012Z,32.60
2023-06-19T16:03:25.910Z,32.70
2023-06-19T16:06:15.992Z,32.60
2023-06-19T16:09:04.574Z,32.50
2023-06-19T16:11:53.025Z,32.60
2023-06-19T16:14:41.527Z,32.60
2023-06-19T16:17:30.035Z,32.50
2023-06-19T16:20:18.514Z,32.40
2023-06-19T16:23:08.412Z,32.40
2023-06-19T16:25:56.824Z,32.30
2023-06-19T16:28:45.395Z,32.20
2023-06-19T16:31:33.976Z,32.20
2023-06-19T16:34:22.718Z,32.30
2023-06-19T16:37:11.387Z,32.30
2023-06-19T16:40:01.246Z,32.20
2023-06-19T16:42:50.193Z,32.20
2023-06-19T16:45:38.634Z,32.00
2023-06-19T16:48:27.058Z,31.90
2023-06-19T16:51:15.472Z,31.80
2023-06-19T16:54:03.959Z,31.80
2023-06-19T16:56:53.776Z,31.80
2023-06-19T16:59:42.225Z,31.80
2023-06-19T17:02:30.766Z,31.80
2023-06-19T17:05:22.332Z,31.80
2023-06-19T17:08:10.824Z,31.70
2023-06-19T17:10:59.321Z,31.70
2023-06-19T17:13:49.309Z,31.60
2023-06-19T17:16:37.915Z,31.50
2023-06-19T17:19:28.372Z,31.50
2023-06-19T17:22:16.782Z,31.40
2023-06-19T17:25:05.652Z,31.40
2023-06-19T17:27:54.683Z,31.40
2023-06-19T17:30:44.563Z,31.30
2023-06-19T17:33:33.002Z,31.20
2023-06-19T17:36:21.772Z,31.10
2023-06-19T17:39:10.762Z,31.00
2023-06-19T17:41:59.297Z,31.00
2023-06-19T17:44:47.795Z,30.90
2023-06-19T17:47:37.846Z,30.90
2023-06-19T17:50:26.685Z,30.90
2023-06-19T17:53:15.265Z,30.80
2023-06-19T17:56:05.966Z,30.80
2023-06-19T17:58:54.792Z,30.60
2023-06-19T18:01:43.381Z,30.60
2023-06-19T18:04:33.390Z,30.50
2023-06-19T18:07:21.859Z,30.50
2023-06-19T18:10:13.084Z,30.40
2023-06-19T18:13:04.006Z,30.30
2023-06-19T18:16:06.807Z,30.20
2023-06-19T18:18:59.476Z,30.20
2023-06-19T18:21:49.426Z,30.10
2023-06-19T18:24:37.894Z,30.10
2023-06-19T18:27:27.547Z,30.10
2023-06-19T18:30:16.017Z,30.00
2023-06-19T18:33:05.295Z,30.00
2023-06-19T18:35:54.007Z,29.90
2023-06-19T18:38:44.133Z,29.80
2023-06-19T18:41:33.599Z,29.80
2023-06-19T18:44:22.324Z,29.80
2023-06-19T18:47:10.961Z,29.80
2023-06-19T18:50:00.038Z,29.70
2023-06-19T18:52:48.838Z,29.70
2023-06-19T18:55:41.230Z,29.70
2023-06-19T18:58:31.654Z,29.70
2023-06-19T19:01:20.586Z,29.60
2023-06-19T19:04:09.459Z,29.60
2023-06-19T19:06:58.130Z,29.50
2023-06-19T19:09:47.065Z,29.40
2023-06-19T19:12:37.590Z,29.30
2023-06-19T19:15:27.761Z,29.30
2023-06-19T19:18:16.362Z,29.20
2023-06-19T19:21:05.190Z,29.20
2023-06-19T19:23:55.323Z,29.10
2023-06-19T19:26:45.205Z,29.10
2023-06-19T19:29:37.048Z,29.00
2023-06-19T19:32:26.045Z,28.90
2023-06-19T19:35:14.783Z,28.90
2023-06-19T19:38:03.993Z,28.80
2023-06-19T19:40:52.733Z,28.80
2023-06-19T19:43:41.480Z,28.70
2023-06-19T19:46:31.526Z,28.70
2023-06-19T19:49:20.420Z,28.60
2023-06-19T19:52:10.633Z,28.60
2023-06-19T19:55:01.011Z,28.60
2023-06-19T19:57:51.543Z,28.50
2023-06-19T20:00:45.697Z,28.40
2023-06-19T20:03:40.511Z,28.30
2023-06-19T20:06:33.709Z,28.30
2023-06-19T20:09:22.914Z,28.30
2023-06-19T20:12:21.585Z,28.20
2023-06-19T20:15:12.433Z,28.20
2023-06-19T20:18:01.547Z,28.10
2023-06-19T20:20:52.407Z,28.10
2023-06-19T20:23:41.018Z,28.10
2023-06-19T20:26:30.833Z,28.00
2023-06-19T20:29:20.475Z,28.00
2023-06-19T20:32:09.707Z,27.90
2023-06-19T20:34:58.176Z,27.80
2023-06-19T20:37:48.195Z,27.70
2023-06-19T20:40:36.637Z,27.60
2023-06-19T20:43:25.790Z,27.60
2023-06-19T20:46:14.344Z,27.60
2023-06-19T20:49:02.801Z,27.50
2023-06-19T20:51:51.665Z,27.40
2023-06-19T20:54:41.834Z,27.30
2023-06-19T20:57:30.330Z,27.20
2023-06-19T21:00:20.539Z,27.20
2023-06-19T21:03:11.757Z,27.20
2023-06-19T21:06:00.978Z,27.20
2023-06-19T21:08:50.201Z,27.10
2023-06-19T21:11:41.591Z,27.10
2023-06-19T21:14:30.187Z,27.00
2023-06-19T21:17:18.690Z,26.90
2023-06-19T21:20:10.527Z,26.90
2023-06-19T21:22:59.633Z,26.80
2023-06-19T21:25:48.068Z,26.80
2023-06-19T21:28:37.884Z,26.70
2023-06-19T21:31:26.293Z,26.70
2023-06-19T21:34:14.784Z,26.60
2023-06-19T21:37:03.320Z,26.60
2023-06-19T21:39:51.893Z,26.60
2023-06-19T21:42:40.358Z,26.50
2023-06-19T21:45:30.278Z,26.60
2023-06-19T21:48:18.715Z,26.60
2023-06-19T21:51:07.214Z,26.50
2023-06-19T21:53:55.805Z,26.60
2023-06-19T21:56:44.299Z,26.50
2023-06-19T21:59:33.041Z,26.50
2023-06-19T22:02:23.358Z,26.50
2023-06-19T22:05:12.031Z,26.30
2023-06-19T22:08:00.477Z,26.30
2023-06-19T22:10:49.078Z,26.30
2023-06-19T22:13:37.520Z,26.20
2023-06-19T22:16:26.081Z,26.20
2023-06-19T22:19:16.003Z,26.10
2023-06-19T22:22:04.533Z,26.00
2023-06-19T22:24:53.174Z,26.00
2023-06-19T22:27:46.145Z,25.90
2023-06-19T22:30:35.418Z,25.90
2023-06-19T22:33:23.846Z,25.90
2023-06-19T22:36:13.682Z,26.00
2023-06-19T22:39:02.239Z,25.90
2023-06-19T22:41:50.982Z,25.90
2023-06-19T22:44:39.464Z,25.90
2023-06-19T22:47:27.954Z,25.90
2023-06-19T22:50:16.449Z,25.90
2023-06-19T22:53:06.277Z,25.80
2023-06-19T22:55:54.705Z,25.80
2023-06-19T22:58:43.738Z,25.60
2023-06-19T23:01:34.473Z,25.60
2023-06-19T23:04:23.041Z,25.50
2023-06-19T23:07:11.583Z,25.40
2023-06-19T23:10:02.026Z,25.40
2023-06-19T23:12:50.615Z,25.40
2023-06-19T23:15:39.108Z,25.50
2023-06-19T23:18:27.588Z,25.50
2023-06-19T23:21:17.460Z,25.40
2023-06-19T23:24:06.615Z,25.40
2023-06-19T23:26:56.481Z,25.40
2023-06-19T23:29:44.929Z,25.30
2023-06-19T23:32:33.503Z,25.30
2023-06-19T23:35:24.021Z,25.30
2023-06-19T23:38:13.997Z,25.30
2023-06-19T23:41:02.489Z,25.30
2023-06-19T23:43:52.368Z,25.30
2023-06-19T23:46:41.089Z,25.30
2023-06-19T23:49:29.613Z,25.30
2023-06-19T23:52:26.684Z,25.10
2023-06-19T23:55:23.442Z,25.10
2023-06-19T23:58:12.198Z,25.10
